»·PEaware :: CFC412 KABQ-KLAS

CFC412 :: KABQ-KLAS

FLIGHT INFORMATION

Flight Status: Arrived
Operator:
Canadian Armed Forces
More flights by this operator :: More flights under this callsign
Pilot: Anonymous 24180 (24180)
Aircraft: AIRBUS A321
(A321)
More flights by this aircraft type
Origin: KABQ Albuquerque Intl Sunport
United States
Destination: KLAS Harry Reid Intl
United States
More flights between these airports :: More routes between these airports
Route: RDRNR3 GUP HAHAA RKSTR2
File this flight plan on PilotEdge
Remarks: RMK / SIMBRIEF
Altitude:
(Current/Filed)
38,000ft
Speed:
(Current/Filed)
454kts
Departed: 28-May-22 12:11 PM
Arrived: 28-May-22 01:24 PM
Distance/Time
Traveled:
421nm/1:13
Distance/Time
To Go:
Arrived

Flight Plot

Page will automatically refresh every two minutes.

Flight plan parsing failed; only flown route is shown


Map Options




Map Legend


Flown Route
Filed Route
Departure Airport
Arrival Airport
Navaid (VOR, NDB)
Fix

Horizontal Profiles

Position Reports

Time Latitude Longitude Heading Altitude Ground
Speed
28-May-22 11:50 35.046892 -106.616391 11 5363ft 0kts
28-May-22 11:51 35.046892 -106.616391 11 5363ft 0kts
28-May-22 11:52 35.046892 -106.616391 11 5363ft 0kts
28-May-22 11:53 35.046892 -106.616391 11 5363ft 0kts
28-May-22 11:54 35.046892 -106.616391 11 5363ft 0kts
28-May-22 11:55 35.046892 -106.616391 11 5363ft 0kts
28-May-22 11:56 35.046892 -106.616391 11 5363ft 0kts
28-May-22 11:57 35.046892 -106.616391 11 5363ft 0kts
28-May-22 11:58 35.046892 -106.616391 11 5363ft 0kts
28-May-22 11:59 35.046892 -106.616391 11 5363ft 0kts
28-May-22 12:00 35.046892 -106.616391 11 5363ft 0kts
28-May-22 12:01 35.046892 -106.616391 11 5363ft 0kts
28-May-22 12:02 35.046892 -106.616391 11 5363ft 0kts
28-May-22 12:03 35.046492 -106.616494 11 5363ft 0kts
28-May-22 12:04 35.046144 -106.616160 264 5363ft 1kts
28-May-22 12:05 35.046146 -106.616106 269 5363ft 0kts
28-May-22 12:06 35.046146 -106.616106 269 5363ft 0kts
28-May-22 12:07 35.045997 -106.616532 235 5363ft 8kts
28-May-22 12:08 35.045566 -106.620992 257 5363ft 6kts
28-May-22 12:09 35.045311 -106.621331 200 5363ft 0kts
28-May-22 12:10 35.044317 -106.616457 90 5363ft 79kts
28-May-22 12:11 35.044698 -106.559696 92 6659ft 199kts
28-May-22 12:12 35.080816 -106.512339 339 8016ft 259kts
28-May-22 12:13 35.101145 -106.592577 261 10165ft 284kts
28-May-22 12:14 35.094803 -106.698621 264 11747ft 347kts
28-May-22 12:15 35.101680 -106.826832 277 13230ft 405kts
28-May-22 12:16 35.122502 -106.963478 278 16260ft 417kts
28-May-22 12:17 35.143669 -107.104797 278 19223ft 430kts
28-May-22 12:18 35.165261 -107.250584 278 21914ft 445kts
28-May-22 12:19 35.189485 -107.400402 279 24682ft 451kts
28-May-22 12:20 35.213324 -107.547803 279 27739ft 440kts
28-May-22 12:21 35.236981 -107.695989 279 29667ft 443kts
28-May-22 12:22 35.260111 -107.842279 279 31746ft 434kts
28-May-22 12:23 35.282777 -107.986411 280 33435ft 429kts
28-May-22 12:24 35.305005 -108.128932 280 34897ft 424kts
28-May-22 12:25 35.326829 -108.270149 280 36101ft 420kts
28-May-22 12:26 35.352533 -108.408828 286 36983ft 420kts
28-May-22 12:27 35.388855 -108.544556 287 37742ft 420kts
28-May-22 12:28 35.425295 -108.680976 286 38128ft 421kts
28-May-22 12:29 35.459728 -108.817540 282 38130ft 420kts
28-May-22 12:30 35.475877 -108.958918 272 38130ft 419kts
28-May-22 12:31 35.476941 -109.100350 271 38131ft 411kts
28-May-22 12:32 35.477406 -109.238846 271 38129ft 402kts
28-May-22 12:33 35.477750 -109.376381 271 38129ft 402kts
28-May-22 12:34 35.477915 -109.513542 271 38129ft 402kts
28-May-22 12:35 35.477895 -109.650308 271 38129ft 402kts
28-May-22 12:36 35.477737 -109.782612 271 38127ft 402kts
28-May-22 12:37 35.477410 -109.919776 271 38114ft 402kts
28-May-22 12:38 35.476936 -110.056849 271 38083ft 402kts
28-May-22 12:39 35.476300 -110.194149 271 38036ft 402kts
28-May-22 12:40 35.475516 -110.331202 271 38013ft 403kts
28-May-22 12:41 35.474570 -110.468449 271 38012ft 403kts
28-May-22 12:42 35.473480 -110.605582 271 38010ft 403kts
28-May-22 12:43 35.472213 -110.743746 270 38012ft 403kts
28-May-22 12:44 35.470799 -110.881254 270 38011ft 403kts
28-May-22 12:46 35.469237 -111.017467 270 38013ft 399kts
28-May-22 12:47 35.467553 -111.152497 270 38012ft 393kts
28-May-22 12:48 35.465742 -111.286496 270 38049ft 394kts
28-May-22 12:49 35.463762 -111.420997 270 38106ft 393kts
28-May-22 12:50 35.461644 -111.554652 270 38126ft 393kts
28-May-22 12:51 35.459361 -111.688999 270 38129ft 393kts
28-May-22 12:52 35.457305 -111.822985 272 38123ft 393kts
28-May-22 12:53 35.468157 -111.956145 279 38114ft 392kts
28-May-22 12:54 35.484611 -112.088065 279 38108ft 392kts
28-May-22 12:55 35.501073 -112.220416 279 38105ft 392kts
28-May-22 12:56 35.517374 -112.352519 279 38105ft 392kts
28-May-22 12:57 35.533467 -112.484171 279 38104ft 392kts
28-May-22 12:58 35.549507 -112.616606 279 38102ft 392kts
28-May-22 12:59 35.565407 -112.749410 278 37561ft 388kts
28-May-22 13:00 35.580715 -112.878483 278 36565ft 376kts
28-May-22 13:01 35.595423 -113.003734 279 35557ft 367kts
28-May-22 13:02 35.609875 -113.127358 279 33276ft 369kts
28-May-22 13:03 35.624568 -113.253794 277 30184ft 380kts
28-May-22 13:04 35.639475 -113.384236 276 26783ft 394kts
28-May-22 13:05 35.656065 -113.519458 278 23207ft 420kts
28-May-22 13:06 35.679245 -113.661657 277 22391ft 422kts
28-May-22 13:07 35.702457 -113.804419 277 20992ft 417kts
28-May-22 13:07 35.720907 -113.918194 277 19080ft 393kts
28-May-22 13:09 35.744008 -114.061703 276 17811ft 339kts
28-May-22 13:10 35.765327 -114.166981 287 17087ft 304kts
28-May-22 13:11 35.805311 -114.258998 292 15381ft 303kts
28-May-22 13:11 35.839305 -114.333758 296 14061ft 302kts
28-May-22 13:12 35.889732 -114.416270 301 12545ft 299kts
28-May-22 13:14 35.948279 -114.510094 301 10889ft 292kts
28-May-22 13:15 35.996884 -114.588828 302 9531ft 285kts
28-May-22 13:16 36.042714 -114.665539 296 8194ft 278kts
28-May-22 13:16 36.071907 -114.730074 277 8007ft 230kts
28-May-22 13:17 36.074278 -114.807198 266 7157ft 223kts
28-May-22 13:18 36.074035 -114.884351 266 5966ft 224kts
28-May-22 13:20 36.073878 -114.970389 265 4650ft 199kts
28-May-22 13:20 36.073746 -115.024859 267 3790ft 180kts
28-May-22 13:21 36.073659 -115.080589 268 2934ft 151kts
28-May-22 13:22 36.073665 -115.131420 269 2190ft 131kts
28-May-22 13:23 36.074951 -115.150749 309 2190ft 17kts

Navigation Log

Ident Type
Flight plan parsing failed, navigation log unavailable